createdAt,value
2022-11-29T00:01:23.413Z,33.55
2022-11-29T00:03:51.809Z,37.47
2022-11-29T00:06:22.259Z,37.28
2022-11-29T00:08:51.721Z,42.17
2022-11-29T00:11:35.125Z,45.60
2022-11-29T00:14:03.518Z,42.05
2022-11-29T00:16:31.476Z,42.80
2022-11-29T00:18:59.360Z,42.05
2022-11-29T00:21:27.187Z,41.45
2022-11-29T00:23:56.611Z,45.15
2022-11-29T00:26:24.505Z,43.25
2022-11-29T00:28:52.834Z,42.55
2022-11-29T00:31:22.492Z,42.67
2022-11-29T00:33:50.633Z,43.55
2022-11-29T00:36:18.813Z,46.15
2022-11-29T00:38:47.374Z,40.30
2022-11-29T00:41:16.808Z,33.33
2022-11-29T00:43:44.811Z,38.00
2022-11-29T00:46:13.087Z,44.83
2022-11-29T00:48:41.053Z,49.75
2022-11-29T00:51:09.071Z,41.78
2022-11-29T00:53:37.692Z,45.85
2022-11-29T00:56:07.089Z,41.70
2022-11-29T00:58:36.587Z,36.28
2022-11-29T01:01:04.936Z,45.63
2022-11-29T01:03:33.192Z,43.53
2022-11-29T01:06:05.513Z,44.72
2022-11-29T01:08:33.581Z,28.50
2022-11-29T01:11:06.464Z,41.08
2022-11-29T01:13:36.073Z,42.20
2022-11-29T01:16:04.406Z,48.97
2022-11-29T01:18:33.131Z,39.13
2022-11-29T01:21:07.533Z,43.03
2022-11-29T01:23:36.475Z,43.60
2022-11-29T01:26:06.241Z,41.75
2022-11-29T01:28:36.117Z,39.25
2022-11-29T01:31:08.009Z,42.63
2022-11-29T01:33:36.337Z,34.55
2022-11-29T01:36:05.360Z,41.45
2022-11-29T01:38:33.533Z,41.90
2022-11-29T01:41:03.145Z,40.38
2022-11-29T01:43:31.067Z,39.63
2022-11-29T01:46:00.684Z,35.05
2022-11-29T01:48:30.418Z,31.38
2022-11-29T01:51:01.491Z,37.53
2022-11-29T01:53:29.900Z,34.50
2022-11-29T01:56:01.716Z,40.53
2022-11-29T01:58:29.967Z,36.63
2022-11-29T02:01:01.548Z,38.25
2022-11-29T02:03:29.535Z,43.03
2022-11-29T02:05:57.422Z,47.45
2022-11-29T02:08:28.869Z,42.47
2022-11-29T02:11:10.735Z,43.85
2022-11-29T02:13:41.283Z,41.03
2022-11-29T02:16:15.506Z,37.78
2022-11-29T02:18:51.164Z,36.58
2022-11-29T02:21:26.518Z,39.72
2022-11-29T02:24:11.629Z,42.95
2022-11-29T02:27:00.129Z,39.25
2022-11-29T02:29:41.752Z,42.85
2022-11-29T02:32:49.174Z,37.85
2022-11-29T02:35:24.529Z,41.28
2022-11-29T02:38:13.324Z,44.90
2022-11-29T02:40:58.996Z,38.08
2022-11-29T02:43:38.499Z,37.28
2022-11-29T02:46:17.490Z,39.28
2022-11-29T02:48:56.620Z,41.15
2022-11-29T02:51:28.666Z,39.17
2022-11-29T02:54:00.001Z,41.53
2022-11-29T02:56:31.081Z,37.78
2022-11-29T02:59:03.548Z,46.70
2022-11-29T03:01:35.977Z,46.72
2022-11-29T03:04:11.483Z,41.92
2022-11-29T03:06:44.673Z,40.05
2022-11-29T03:09:18.506Z,39.70
2022-11-29T03:11:50.723Z,42.40
2022-11-29T03:14:25.534Z,38.58
2022-11-29T03:17:02.003Z,40.55
2022-11-29T03:19:37.918Z,46.45
2022-11-29T03:22:12.647Z,45.45
2022-11-29T03:24:47.034Z,46.13
2022-11-29T03:27:18.924Z,41.92
2022-11-29T03:29:50.009Z,54.53
2022-11-29T03:32:22.092Z,47.58
2022-11-29T03:34:57.783Z,49.80
2022-11-29T03:37:30.760Z,47.20
2022-11-29T03:42:32.525Z,44.80
2022-11-29T03:45:05.473Z,48.40
2022-11-29T03:47:38.329Z,49.63
2022-11-29T03:50:10.675Z,47.45
2022-11-29T03:52:44.218Z,44.63
2022-11-29T03:55:20.605Z,52.35
2022-11-29T03:57:55.709Z,44.00
2022-11-29T04:00:23.970Z,45.95
2022-11-29T04:03:27.168Z,46.70
2022-11-29T04:06:13.426Z,55.35
2022-11-29T04:09:06.078Z,51.22
2022-11-29T04:12:02.441Z,49.55
2022-11-29T04:14:52.017Z,48.95
2022-11-29T04:17:39.685Z,53.67
2022-11-29T04:20:24.414Z,49.25
2022-11-29T04:23:23.780Z,48.65
2022-11-29T04:26:40.852Z,55.92
2022-11-29T04:29:20.081Z,53.42
2022-11-29T04:32:00.222Z,52.17
2022-11-29T04:34:47.507Z,58.65
2022-11-29T04:37:24.342Z,52.67
2022-11-29T04:40:05.045Z,64.35
2022-11-29T04:43:03.996Z,46.83
2022-11-29T04:45:49.872Z,55.55
2022-11-29T04:48:39.222Z,50.45
2022-11-29T04:51:16.538Z,59.13
2022-11-29T04:53:51.148Z,49.03
2022-11-29T04:56:26.626Z,54.20
2022-11-29T04:59:00.448Z,42.20
2022-11-29T05:01:34.114Z,61.08
2022-11-29T05:04:04.233Z,55.75
2022-11-29T05:06:39.432Z,41.92
2022-11-29T05:09:12.189Z,52.15
2022-11-29T05:11:51.448Z,56.58
2022-11-29T05:14:28.543Z,56.10
2022-11-29T05:17:09.928Z,58.03
2022-11-29T05:19:54.637Z,47.28
2022-11-29T05:22:29.219Z,46.80
2022-11-29T05:25:03.719Z,54.47
2022-11-29T05:27:40.639Z,57.40
2022-11-29T05:30:13.205Z,49.60
2022-11-29T05:32:50.170Z,57.03
2022-11-29T05:35:35.880Z,47.03
2022-11-29T05:38:10.013Z,56.85
2022-11-29T05:40:45.852Z,56.55
2022-11-29T05:43:28.912Z,54.80
2022-11-29T05:46:01.767Z,55.28
2022-11-29T05:48:34.085Z,59.83
2022-11-29T05:51:11.449Z,55.67
2022-11-29T05:53:45.357Z,58.22
2022-11-29T05:56:16.745Z,61.92
2022-11-29T05:58:50.885Z,58.70
2022-11-29T06:01:22.808Z,63.80
2022-11-29T06:03:59.503Z,58.40
2022-11-29T06:06:33.838Z,59.42
2022-11-29T06:09:06.882Z,55.30
2022-11-29T06:11:36.771Z,61.42
2022-11-29T06:14:12.407Z,62.13
2022-11-29T06:16:52.524Z,60.28
2022-11-29T06:19:41.552Z,63.30
2022-11-29T06:22:22.929Z,60.75
2022-11-29T06:25:01.497Z,61.70
2022-11-29T06:27:43.982Z,60.85
2022-11-29T06:30:15.768Z,65.95
2022-11-29T06:32:50.470Z,61.70
2022-11-29T06:35:34.817Z,61.42
2022-11-29T06:38:05.605Z,63.10
2022-11-29T06:40:34.126Z,54.33
2022-11-29T06:43:02.455Z,64.45
2022-11-29T06:45:32.806Z,59.67
2022-11-29T06:48:03.110Z,61.15
2022-11-29T06:50:36.916Z,61.97
2022-11-29T06:53:10.783Z,64.63
2022-11-29T06:55:44.924Z,65.68
2022-11-29T06:58:24.945Z,72.30
2022-11-29T07:00:58.163Z,69.45
2022-11-29T07:03:38.228Z,71.70
2022-11-29T07:06:13.398Z,64.28
2022-11-29T07:08:41.666Z,83.03
2022-11-29T07:11:11.832Z,78.70
2022-11-29T07:13:40.380Z,67.28
2022-11-29T07:16:15.451Z,94.85
2022-11-29T07:18:47.147Z,115.93
2022-11-29T07:21:20.998Z,82.78
2022-11-29T07:23:55.979Z,94.93
2022-11-29T07:26:30.221Z,107.07
2022-11-29T07:29:14.375Z,80.75
2022-11-29T07:31:52.672Z,69.35
2022-11-29T07:34:24.112Z,59.08
2022-11-29T07:36:59.659Z,72.45
2022-11-29T07:39:36.938Z,64.05
2022-11-29T07:42:09.630Z,122.07
2022-11-29T07:44:41.208Z,49.35
2022-11-29T07:47:10.745Z,58.60
2022-11-29T07:49:38.555Z,71.60
2022-11-29T07:52:06.443Z,63.55
2022-11-29T07:54:34.587Z,60.08
2022-11-29T07:57:02.402Z,69.72
2022-11-29T07:59:30.285Z,70.05
2022-11-29T08:01:58.773Z,68.85
2022-11-29T08:04:28.182Z,63.55
2022-11-29T08:06:59.225Z,49.50
2022-11-29T08:09:27.120Z,60.05
2022-11-29T08:11:54.912Z,66.85
2022-11-29T08:14:22.718Z,75.75
2022-11-29T08:16:50.575Z,74.95
2022-11-29T08:19:18.420Z,59.83
2022-11-29T08:21:48.223Z,68.25
2022-11-29T08:24:16.173Z,70.60
2022-11-29T08:26:44.064Z,61.90
2022-11-29T08:29:11.959Z,64.85
2022-11-29T08:31:39.879Z,68.97
2022-11-29T08:34:08.233Z,55.03
2022-11-29T08:36:36.203Z,69.40
2022-11-29T08:39:09.370Z,64.75
2022-11-29T08:41:37.687Z,65.72
2022-11-29T08:44:05.899Z,71.13
2022-11-29T08:46:47.652Z,77.53
2022-11-29T08:49:15.509Z,71.35
2022-11-29T08:51:43.339Z,64.25
2022-11-29T08:54:11.623Z,62.53
2022-11-29T08:59:27.591Z,81.93
2022-11-29T09:01:55.534Z,69.38
2022-11-29T09:04:23.454Z,78.28
2022-11-29T09:06:51.315Z,60.03
2022-11-29T09:09:20.472Z,63.72
2022-11-29T09:11:49.743Z,61.58
2022-11-29T09:14:18.502Z,66.68
2022-11-29T09:16:46.452Z,80.07
2022-11-29T09:19:15.341Z,121.40
2022-11-29T09:21:43.189Z,120.60
2022-11-29T09:24:10.974Z,75.85
2022-11-29T09:26:42.086Z,70.45
2022-11-29T09:29:09.960Z,106.72
2022-11-29T09:31:37.872Z,84.90
2022-11-29T09:34:05.779Z,66.03
2022-11-29T09:36:33.702Z,62.63
2022-11-29T09:39:03.274Z,65.22
2022-11-29T09:42:04.408Z,64.95
2022-11-29T09:44:40.925Z,70.22
2022-11-29T09:47:22.898Z,52.65
2022-11-29T09:49:57.300Z,59.42
2022-11-29T09:52:35.390Z,66.60
2022-11-29T09:55:10.076Z,65.00
2022-11-29T09:57:39.949Z,64.43
2022-11-29T10:00:16.263Z,58.08
2022-11-29T10:02:47.833Z,61.85
2022-11-29T10:05:20.592Z,62.53
2022-11-29T10:07:50.107Z,57.50
2022-11-29T10:10:22.135Z,57.63
2022-11-29T10:12:54.235Z,56.78
2022-11-29T10:15:24.065Z,66.73
2022-11-29T10:17:57.541Z,58.38
2022-11-29T10:20:27.077Z,68.20
2022-11-29T10:22:57.984Z,55.80
2022-11-29T10:25:27.541Z,57.10
2022-11-29T10:27:56.711Z,55.58
2022-11-29T10:30:24.702Z,53.55
2022-11-29T10:32:57.164Z,61.78
2022-11-29T10:35:25.286Z,60.97
2022-11-29T10:38:29.151Z,57.55
2022-11-29T10:40:48.165Z,59.33
2022-11-29T10:43:17.444Z,59.53
2022-11-29T10:45:50.403Z,58.50
2022-11-29T10:48:19.822Z,54.97
2022-11-29T10:50:49.451Z,51.20
2022-11-29T10:53:19.514Z,56.17
2022-11-29T10:55:50.688Z,57.80
2022-11-29T10:58:28.053Z,65.38
2022-11-29T11:00:58.333Z,53.63
2022-11-29T11:03:33.765Z,60.38
2022-11-29T11:06:10.788Z,53.03
2022-11-29T11:08:39.929Z,56.10
2022-11-29T11:11:08.653Z,59.83
2022-11-29T11:13:39.219Z,55.40
2022-11-29T11:16:16.846Z,57.08
2022-11-29T11:18:45.643Z,58.78
2022-11-29T11:21:15.952Z,60.22
2022-11-29T11:23:49.385Z,57.40
2022-11-29T11:26:17.231Z,54.17
2022-11-29T11:28:51.434Z,51.90
2022-11-29T11:31:28.345Z,49.40
2022-11-29T11:33:56.694Z,48.20
2022-11-29T11:36:27.108Z,52.70
2022-11-29T11:38:56.929Z,58.15
2022-11-29T11:41:48.573Z,63.38
2022-11-29T11:47:19.584Z,54.78
2022-11-29T11:49:49.747Z,56.17
2022-11-29T11:52:22.003Z,53.03
2022-11-29T11:54:52.921Z,48.88
2022-11-29T11:57:22.051Z,61.15
2022-11-29T11:59:52.268Z,56.85
2022-11-29T12:02:28.123Z,57.40
2022-11-29T12:04:58.804Z,54.58
2022-11-29T12:07:59.751Z,44.80
2022-11-29T12:10:22.325Z,54.95
2022-11-29T12:12:50.535Z,47.53
2022-11-29T12:15:21.638Z,55.40
2022-11-29T12:17:51.839Z,53.83
2022-11-29T12:20:23.872Z,53.75
2022-11-29T12:23:04.589Z,53.47
2022-11-29T12:25:35.859Z,50.90
2022-11-29T12:28:04.873Z,46.63
2022-11-29T12:30:34.603Z,50.25
2022-11-29T12:33:17.720Z,48.78
2022-11-29T12:36:09.101Z,46.38
2022-11-29T12:39:04.931Z,51.55
2022-11-29T12:41:38.265Z,55.28
2022-11-29T12:44:14.799Z,51.22
2022-11-29T12:46:48.349Z,56.17
2022-11-29T12:49:23.052Z,53.38
2022-11-29T12:51:58.206Z,55.47
2022-11-29T12:54:42.690Z,58.72
2022-11-29T12:57:17.658Z,52.70
2022-11-29T13:00:01.805Z,46.20
2022-11-29T13:02:42.041Z,57.33
2022-11-29T13:05:16.916Z,51.30
2022-11-29T13:07:56.036Z,53.63
2022-11-29T13:10:31.595Z,47.08
2022-11-29T13:13:01.612Z,50.45
2022-11-29T13:15:38.065Z,46.90
2022-11-29T13:18:13.494Z,46.13
2022-11-29T13:20:44.625Z,57.78
2022-11-29T13:23:20.733Z,62.50
2022-11-29T13:25:51.854Z,57.25
2022-11-29T13:28:23.812Z,60.28
2022-11-29T13:30:52.302Z,66.68
2022-11-29T13:33:27.242Z,53.13
2022-11-29T13:35:59.644Z,56.28
2022-11-29T13:38:32.871Z,53.60
2022-11-29T13:41:03.791Z,62.78
2022-11-29T13:43:37.871Z,53.47
2022-11-29T13:46:15.649Z,55.58
2022-11-29T13:48:50.912Z,51.08
2022-11-29T13:51:28.034Z,53.67
2022-11-29T13:53:56.710Z,55.72
2022-11-29T13:56:32.636Z,64.20
2022-11-29T13:59:01.577Z,60.15
2022-11-29T14:01:29.843Z,57.70
2022-11-29T14:04:06.808Z,52.78
2022-11-29T14:06:36.155Z,58.42
2022-11-29T14:09:22.702Z,57.22
2022-11-29T14:11:55.008Z,61.13
2022-11-29T14:14:26.949Z,53.38
2022-11-29T14:16:58.210Z,53.78
2022-11-29T14:19:33.406Z,55.30
2022-11-29T14:22:21.830Z,62.97
2022-11-29T14:25:53.389Z,56.63
2022-11-29T14:28:32.542Z,55.45
2022-11-29T14:31:01.861Z,54.00
2022-11-29T14:33:39.665Z,57.63
2022-11-29T14:36:38.661Z,60.40
2022-11-29T14:39:22.380Z,58.90
2022-11-29T14:41:57.055Z,57.63
2022-11-29T14:44:28.064Z,54.97
2022-11-29T14:47:04.558Z,52.47
2022-11-29T14:49:40.449Z,54.58
2022-11-29T14:52:23.651Z,56.05
2022-11-29T14:54:55.361Z,54.97
2022-11-29T14:58:13.173Z,53.53
2022-11-29T15:00:53.020Z,55.42
2022-11-29T15:03:22.980Z,58.60
2022-11-29T15:05:53.961Z,64.63
2022-11-29T15:08:33.159Z,60.65
2022-11-29T15:11:03.966Z,56.28
2022-11-29T15:13:33.532Z,61.55
2022-11-29T15:16:31.096Z,61.20
2022-11-29T15:19:43.895Z,55.47
2022-11-29T15:22:15.855Z,59.60
2022-11-29T15:24:56.497Z,62.40
2022-11-29T15:27:25.182Z,59.15
2022-11-29T15:29:53.077Z,62.15
2022-11-29T15:32:25.786Z,61.65
2022-11-29T15:34:54.643Z,62.65
2022-11-29T15:37:23.918Z,52.42
2022-11-29T15:40:04.066Z,63.35
2022-11-29T15:42:40.071Z,58.95
2022-11-29T15:45:32.878Z,57.00
2022-11-29T15:48:13.698Z,59.72
2022-11-29T15:50:45.711Z,61.47
2022-11-29T15:53:18.363Z,54.57
2022-11-29T15:55:49.503Z,55.85
2022-11-29T15:58:17.770Z,63.60
2022-11-29T16:00:49.616Z,62.47
2022-11-29T16:03:22.865Z,52.58
2022-11-29T16:05:52.554Z,55.65
2022-11-29T16:08:21.045Z,56.25
2022-11-29T16:10:53.091Z,62.63
2022-11-29T16:13:34.000Z,63.27
2022-11-29T16:16:12.169Z,63.70
2022-11-29T16:18:42.027Z,62.42
2022-11-29T16:21:23.947Z,63.95
2022-11-29T16:23:51.831Z,63.38
2022-11-29T16:26:22.844Z,57.88
2022-11-29T16:28:52.142Z,61.42
2022-11-29T16:31:21.375Z,62.28
2022-11-29T16:33:51.409Z,67.90
2022-11-29T16:36:22.046Z,71.80
2022-11-29T16:38:51.690Z,72.55
2022-11-29T16:41:26.125Z,68.53
2022-11-29T16:43:56.127Z,68.03
2022-11-29T16:46:32.791Z,71.68
2022-11-29T16:49:03.626Z,73.60
2022-11-29T16:51:39.755Z,67.22
2022-11-29T16:54:22.896Z,68.43
2022-11-29T16:56:53.220Z,70.00
2022-11-29T16:59:27.157Z,66.82
2022-11-29T17:01:56.322Z,67.53
2022-11-29T17:04:24.880Z,67.47
2022-11-29T17:06:53.564Z,66.13
2022-11-29T17:09:24.707Z,68.07
2022-11-29T17:11:54.226Z,65.40
2022-11-29T17:14:22.146Z,67.70
2022-11-29T17:16:50.483Z,61.28
2022-11-29T17:19:18.914Z,63.38
2022-11-29T17:21:47.536Z,62.42
2022-11-29T17:24:17.239Z,69.28
2022-11-29T17:26:45.872Z,65.00
2022-11-29T17:29:16.522Z,53.47
2022-11-29T17:31:45.705Z,68.63
2022-11-29T17:34:14.031Z,47.33
2022-11-29T17:36:42.013Z,64.90
2022-11-29T17:39:09.926Z,55.95
2022-11-29T17:41:38.456Z,56.17
2022-11-29T17:44:06.473Z,62.35
2022-11-29T17:46:36.913Z,56.58
2022-11-29T17:49:07.009Z,57.55
2022-11-29T17:51:53.802Z,59.45
2022-11-29T17:54:22.207Z,56.05
2022-11-29T17:56:50.550Z,52.88
2022-11-29T17:59:18.573Z,55.88
2022-11-29T18:01:48.475Z,57.05
2022-11-29T18:04:16.532Z,63.17
2022-11-29T18:06:49.344Z,59.63
2022-11-29T18:09:18.253Z,57.78
2022-11-29T18:11:49.364Z,66.80
2022-11-29T18:14:19.674Z,62.63
2022-11-29T18:16:48.948Z,63.03
2022-11-29T18:19:18.363Z,70.65
2022-11-29T18:21:46.348Z,65.80
2022-11-29T18:24:14.533Z,63.67
2022-11-29T18:26:42.860Z,62.42
2022-11-29T18:29:10.979Z,67.32
2022-11-29T18:31:40.788Z,70.25
2022-11-29T18:34:11.108Z,63.83
2022-11-29T18:36:42.765Z,66.70
2022-11-29T18:39:13.846Z,61.83
2022-11-29T18:41:42.590Z,57.10
2022-11-29T18:44:12.244Z,63.40
2022-11-29T18:46:41.558Z,67.53
2022-11-29T18:49:12.431Z,64.95
2022-11-29T18:51:42.202Z,60.20
2022-11-29T18:54:10.115Z,61.40
2022-11-29T18:56:38.419Z,68.93
2022-11-29T18:59:08.535Z,65.97
2022-11-29T19:01:40.753Z,57.45
2022-11-29T19:04:11.961Z,67.18
2022-11-29T19:06:40.415Z,68.95
2022-11-29T19:09:11.916Z,58.88
2022-11-29T19:11:39.961Z,62.33
2022-11-29T19:14:11.440Z,68.85
2022-11-29T19:16:41.245Z,64.50
2022-11-29T19:19:10.679Z,66.28
2022-11-29T19:21:40.061Z,60.60
2022-11-29T19:24:13.764Z,67.68
2022-11-29T19:26:44.139Z,58.55
2022-11-29T19:29:12.050Z,67.43
2022-11-29T19:31:40.305Z,70.57
2022-11-29T19:34:08.275Z,71.68
2022-11-29T19:36:42.760Z,64.18
2022-11-29T19:39:13.131Z,67.38
2022-11-29T19:41:42.606Z,71.93
2022-11-29T19:44:12.583Z,70.75
2022-11-29T19:46:42.389Z,68.00
2022-11-29T19:49:10.720Z,73.20
2022-11-29T19:51:40.744Z,66.00
2022-11-29T19:54:09.805Z,76.70
2022-11-29T19:56:38.764Z,67.32
2022-11-29T19:59:07.462Z,66.55
2022-11-29T20:01:43.650Z,70.28
2022-11-29T20:04:14.259Z,70.68
2022-11-29T20:06:44.288Z,69.68
2022-11-29T20:09:13.416Z,68.93
2022-11-29T20:11:41.468Z,67.20
2022-11-29T20:14:11.349Z,71.88
2022-11-29T20:16:39.333Z,69.88
2022-11-29T20:19:11.731Z,76.82
2022-11-29T20:21:44.085Z,64.63
2022-11-29T20:24:14.202Z,69.15
2022-11-29T20:26:43.918Z,70.90
2022-11-29T20:29:13.038Z,72.35
2022-11-29T20:31:47.759Z,68.18
2022-11-29T20:34:18.140Z,77.35
2022-11-29T20:37:06.698Z,67.32
2022-11-29T20:39:41.116Z,71.00
2022-11-29T20:42:22.539Z,70.65
2022-11-29T20:44:54.707Z,74.40
2022-11-29T20:47:24.417Z,68.03
2022-11-29T20:49:52.848Z,66.03
2022-11-29T20:52:33.108Z,69.15
2022-11-29T20:55:00.982Z,60.20
2022-11-29T20:57:29.453Z,60.95
2022-11-29T20:59:57.354Z,67.15
2022-11-29T21:02:25.400Z,68.55
2022-11-29T21:04:53.323Z,70.97
2022-11-29T21:07:21.189Z,70.38
2022-11-29T21:09:50.463Z,70.82
2022-11-29T21:12:18.873Z,74.78
2022-11-29T21:14:47.032Z,74.90
2022-11-29T21:17:15.522Z,70.65
2022-11-29T21:19:43.972Z,53.85
2022-11-29T21:22:17.650Z,77.32
2022-11-29T21:24:52.862Z,68.20
2022-11-29T21:27:26.813Z,66.95
2022-11-29T21:29:55.332Z,71.18
2022-11-29T21:32:25.108Z,66.18
2022-11-29T21:34:53.045Z,70.13
2022-11-29T21:37:22.887Z,72.72
2022-11-29T21:39:52.251Z,71.30
2022-11-29T21:42:20.555Z,66.88
2022-11-29T21:44:48.745Z,62.55
2022-11-29T21:47:16.811Z,72.15
2022-11-29T21:49:44.960Z,75.15
2022-11-29T21:52:16.440Z,72.25
2022-11-29T21:54:47.248Z,73.57
2022-11-29T21:57:16.594Z,75.35
2022-11-29T21:59:44.659Z,76.78
2022-11-29T22:02:12.512Z,65.85
2022-11-29T22:04:40.496Z,74.15
2022-11-29T22:07:08.357Z,75.80
2022-11-29T22:09:36.204Z,67.53
2022-11-29T22:12:25.766Z,72.30
2022-11-29T22:14:54.206Z,71.13
2022-11-29T22:17:22.081Z,74.68
2022-11-29T22:19:49.938Z,63.15
2022-11-29T22:22:18.058Z,69.75
2022-11-29T22:24:46.274Z,73.70
2022-11-29T22:27:14.276Z,67.68
2022-11-29T22:29:42.057Z,79.22
2022-11-29T22:32:11.251Z,68.68
2022-11-29T22:34:39.154Z,72.15
2022-11-29T22:37:07.108Z,61.47
2022-11-29T22:39:35.002Z,72.05
2022-11-29T22:42:02.809Z,74.80
2022-11-29T22:44:31.260Z,59.53
2022-11-29T22:46:59.178Z,64.65
2022-11-29T22:49:28.392Z,73.10
2022-11-29T22:51:56.259Z,75.15
2022-11-29T22:54:24.054Z,65.90
2022-11-29T22:56:52.257Z,74.60
2022-11-29T22:59:20.165Z,69.47
2022-11-29T23:01:48.325Z,70.45
2022-11-29T23:04:16.165Z,67.18
2022-11-29T23:06:46.648Z,73.90
2022-11-29T23:09:16.792Z,70.80
2022-11-29T23:11:45.652Z,72.72
2022-11-29T23:14:14.026Z,65.40
2022-11-29T23:16:42.097Z,65.82
2022-11-29T23:19:10.369Z,70.05
2022-11-29T23:21:39.530Z,69.55
2022-11-29T23:24:09.356Z,76.75
2022-11-29T23:26:40.088Z,73.20
2022-11-29T23:29:09.280Z,65.20
2022-11-29T23:31:37.200Z,69.75
2022-11-29T23:34:05.375Z,74.57
2022-11-29T23:36:33.238Z,68.78
2022-11-29T23:39:01.060Z,67.70
2022-11-29T23:41:30.299Z,79.43
2022-11-29T23:43:59.591Z,69.97
2022-11-29T23:46:27.491Z,60.45
2022-11-29T23:48:55.503Z,79.28
2022-11-29T23:51:23.397Z,61.78
2022-11-29T23:53:52.526Z,66.82
2022-11-29T23:56:21.064Z,65.00
2022-11-29T23:58:50.678Z,76.28
